Prachuap Khirikhan, Thailand
Current Conditions -  °F | °C
As of 6:30 PM on Monday 20 Oct 2014 (Local Time) from VTBU Reporting Station
Broken Clouds Broken Clouds  
Wind Chill: 84°   Ceiling: 30000
Heat Index: 92°   Visibility: 6mi
Dew Point: 75°   Wind: 5mph
Humidity: 74%   Direction: 150°SSE
Pressure: 29.83"   Gusts: NA
Location:  11.83°N, 99.83°E
Report Text: VTBU 201130Z 15004KT 9999 FEW020 SCT120 BKN300 29/24 Q1010 A2984
Loading
Personal Weather Stations






























Interactive Weather Map New forecast layout! Learn more

10-Day Weather Forecast

Advertisements
Track Severe Weather on mobile